sensor_id;sensor_type;location;lat;lon;timestamp;temperature;humidity
72202;SHT30;60105;54.956;73.412;2023-04-08T00:02:40;-6.43;43.57
72202;SHT30;60105;54.956;73.412;2023-04-08T00:05:42;-6.51;43.43
72202;SHT30;60105;54.956;73.412;2023-04-08T00:08:44;-6.55;43.77
72202;SHT30;60105;54.956;73.412;2023-04-08T00:11:45;-6.78;44.81
72202;SHT30;60105;54.956;73.412;2023-04-08T00:14:46;-6.84;45.18
72202;SHT30;60105;54.956;73.412;2023-04-08T00:17:52;-6.72;45.12
72202;SHT30;60105;54.956;73.412;2023-04-08T00:21:38;-6.71;45.90
72202;SHT30;60105;54.956;73.412;2023-04-08T00:24:40;-6.64;45.10
72202;SHT30;60105;54.956;73.412;2023-04-08T00:27:41;-6.61;44.93
72202;SHT30;60105;54.956;73.412;2023-04-08T00:30:43;-6.51;44.74
72202;SHT30;60105;54.956;73.412;2023-04-08T00:33:46;-6.61;44.48
72202;SHT30;60105;54.956;73.412;2023-04-08T00:36:48;-6.64;45.33
72202;SHT30;60105;54.956;73.412;2023-04-08T00:39:53;-6.60;44.64
72202;SHT30;60105;54.956;73.412;2023-04-08T00:42:56;-6.64;44.99
72202;SHT30;60105;54.956;73.412;2023-04-08T00:46:39;-6.54;45.62
72202;SHT30;60105;54.956;73.412;2023-04-08T00:49:50;-6.61;45.96
72202;SHT30;60105;54.956;73.412;2023-04-08T00:52:52;-6.54;45.78
72202;SHT30;60105;54.956;73.412;2023-04-08T00:55:53;-6.52;46.27
72202;SHT30;60105;54.956;73.412;2023-04-08T00:58:54;-6.75;47.30
72202;SHT30;60105;54.956;73.412;2023-04-08T01:05:07;-6.75;46.73
72202;SHT30;60105;54.956;73.412;2023-04-08T01:08:17;-6.70;46.45
72202;SHT30;60105;54.956;73.412;2023-04-08T01:11:19;-6.71;46.02
72202;SHT30;60105;54.956;73.412;2023-04-08T01:14:27;-6.54;45.70
72202;SHT30;60105;54.956;73.412;2023-04-08T01:17:30;-6.54;45.42
72202;SHT30;60105;54.956;73.412;2023-04-08T01:20:33;-6.61;45.60
72202;SHT30;60105;54.956;73.412;2023-04-08T01:23:43;-6.57;46.23
72202;SHT30;60105;54.956;73.412;2023-04-08T01:26:46;-6.45;45.06
72202;SHT30;60105;54.956;73.412;2023-04-08T01:29:48;-6.50;45.23
72202;SHT30;60105;54.956;73.412;2023-04-08T01:32:52;-6.45;45.90
72202;SHT30;60105;54.956;73.412;2023-04-08T01:36:39;-6.37;45.61
72202;SHT30;60105;54.956;73.412;2023-04-08T01:39:41;-6.24;43.81
72202;SHT30;60105;54.956;73.412;2023-04-08T01:42:57;-6.33;44.36
72202;SHT30;60105;54.956;73.412;2023-04-08T01:46:40;-6.16;42.65
72202;SHT30;60105;54.956;73.412;2023-04-08T01:49:42;-6.07;42.17
72202;SHT30;60105;54.956;73.412;2023-04-08T01:52:45;-6.00;41.87
72202;SHT30;60105;54.956;73.412;2023-04-08T01:55:52;-6.00;43.65
72202;SHT30;60105;54.956;73.412;2023-04-08T01:58:57;-6.02;43.73
72202;SHT30;60105;54.956;73.412;2023-04-08T02:02:05;-5.99;44.41
72202;SHT30;60105;54.956;73.412;2023-04-08T02:05:08;-6.02;43.03
72202;SHT30;60105;54.956;73.412;2023-04-08T02:08:16;-5.99;40.57
72202;SHT30;60105;54.956;73.412;2023-04-08T02:11:17;-5.82;40.72
72202;SHT30;60105;54.956;73.412;2023-04-08T02:14:18;-5.85;42.09
72202;SHT30;60105;54.956;73.412;2023-04-08T02:20:49;-5.74;43.04
72202;SHT30;60105;54.956;73.412;2023-04-08T02:23:53;-5.61;43.36
72202;SHT30;60105;54.956;73.412;2023-04-08T02:26:55;-5.52;43.13
72202;SHT30;60105;54.956;73.412;2023-04-08T02:29:59;-5.54;44.27
72202;SHT30;60105;54.956;73.412;2023-04-08T02:33:04;-5.47;44.21
72202;SHT30;60105;54.956;73.412;2023-04-08T02:36:38;-5.37;44.68
72202;SHT30;60105;54.956;73.412;2023-04-08T02:39:41;-5.14;44.89
72202;SHT30;60105;54.956;73.412;2023-04-08T02:42:45;-4.92;44.01
72202;SHT30;60105;54.956;73.412;2023-04-08T02:45:46;-5.00;42.68
72202;SHT30;60105;54.956;73.412;2023-04-08T02:48:50;-4.86;41.22
72202;SHT30;60105;54.956;73.412;2023-04-08T02:51:57;-4.81;42.07
72202;SHT30;60105;54.956;73.412;2023-04-08T02:54:58;-4.71;42.71
72202;SHT30;60105;54.956;73.412;2023-04-08T02:58:09;-4.75;43.70
72202;SHT30;60105;54.956;73.412;2023-04-08T03:01:38;-4.52;43.99
72202;SHT30;60105;54.956;73.412;2023-04-08T03:04:44;-4.61;43.83
72202;SHT30;60105;54.956;73.412;2023-04-08T03:07:46;-4.51;43.84
72202;SHT30;60105;54.956;73.412;2023-04-08T03:10:47;-4.61;42.26
72202;SHT30;60105;54.956;73.412;2023-04-08T03:13:49;-4.65;42.94
72202;SHT30;60105;54.956;73.412;2023-04-08T03:16:51;-4.60;40.76
72202;SHT30;60105;54.956;73.412;2023-04-08T03:19:52;-4.54;40.46
72202;SHT30;60105;54.956;73.412;2023-04-08T03:22:59;-4.44;40.09
72202;SHT30;60105;54.956;73.412;2023-04-08T03:26:38;-4.34;38.83
72202;SHT30;60105;54.956;73.412;2023-04-08T03:29:39;-4.21;39.05
72202;SHT30;60105;54.956;73.412;2023-04-08T03:32:41;-4.02;38.82
72202;SHT30;60105;54.956;73.412;2023-04-08T03:35:42;-3.94;38.73
72202;SHT30;60105;54.956;73.412;2023-04-08T03:38:43;-4.03;38.61
72202;SHT30;60105;54.956;73.412;2023-04-08T03:41:45;-4.04;39.19
72202;SHT30;60105;54.956;73.412;2023-04-08T03:44:46;-4.03;39.44
72202;SHT30;60105;54.956;73.412;2023-04-08T03:47:51;-4.24;38.06
72202;SHT30;60105;54.956;73.412;2023-04-08T03:51:38;-4.34;38.30
72202;SHT30;60105;54.956;73.412;2023-04-08T03:54:39;-4.25;37.12
72202;SHT30;60105;54.956;73.412;2023-04-08T03:57:46;-3.85;37.50
72202;SHT30;60105;54.956;73.412;2023-04-08T04:00:47;-3.55;36.21
72202;SHT30;60105;54.956;73.412;2023-04-08T04:03:48;-3.42;36.79
72202;SHT30;60105;54.956;73.412;2023-04-08T04:06:49;-3.47;38.14
72202;SHT30;60105;54.956;73.412;2023-04-08T04:09:51;-3.44;38.40
72202;SHT30;60105;54.956;73.412;2023-04-08T04:12:54;-3.40;38.24
72202;SHT30;60105;54.956;73.412;2023-04-08T04:16:38;-3.34;37.52
72202;SHT30;60105;54.956;73.412;2023-04-08T04:19:39;-3.07;36.84
72202;SHT30;60105;54.956;73.412;2023-04-08T04:22:46;-3.00;36.90
72202;SHT30;60105;54.956;73.412;2023-04-08T04:25:47;-3.04;35.57
72202;SHT30;60105;54.956;73.412;2023-04-08T04:28:48;-2.93;35.82
72202;SHT30;60105;54.956;73.412;2023-04-08T04:31:56;-3.01;34.46
72202;SHT30;60105;54.956;73.412;2023-04-08T04:34:57;-3.14;35.73
72202;SHT30;60105;54.956;73.412;2023-04-08T04:38:09;-3.13;35.01
72202;SHT30;60105;54.956;73.412;2023-04-08T04:41:13;-3.20;36.47
72202;SHT30;60105;54.956;73.412;2023-04-08T04:44:19;-3.04;36.33
72202;SHT30;60105;54.956;73.412;2023-04-08T04:47:21;-2.93;36.59
72202;SHT30;60105;54.956;73.412;2023-04-08T04:50:22;-2.72;35.99
72202;SHT30;60105;54.956;73.412;2023-04-08T04:53:23;-2.63;35.07
72202;SHT30;60105;54.956;73.412;2023-04-08T04:56:38;-2.68;36.49
72202;SHT30;60105;54.956;73.412;2023-04-08T04:59:39;-2.38;36.83
72202;SHT30;60105;54.956;73.412;2023-04-08T05:02:41;-2.56;35.98
72202;SHT30;60105;54.956;73.412;2023-04-08T05:05:42;-2.56;36.62
72202;SHT30;60105;54.956;73.412;2023-04-08T05:08:43;-2.58;36.61
72202;SHT30;60105;54.956;73.412;2023-04-08T05:11:45;-2.65;36.57
72202;SHT30;60105;54.956;73.412;2023-04-08T05:14:46;-2.66;35.17
72202;SHT30;60105;54.956;73.412;2023-04-08T05:17:47;-2.59;36.89
72202;SHT30;60105;54.956;73.412;2023-04-08T05:21:38;-2.48;38.31
72202;SHT30;60105;54.956;73.412;2023-04-08T05:24:39;-2.04;37.90
72202;SHT30;60105;54.956;73.412;2023-04-08T05:27:41;-1.76;37.02
72202;SHT30;60105;54.956;73.412;2023-04-08T05:30:50;-1.86;35.78
72202;SHT30;60105;54.956;73.412;2023-04-08T05:33:51;-1.90;35.57
72202;SHT30;60105;54.956;73.412;2023-04-08T05:37:03;-1.76;36.49
72202;SHT30;60105;54.956;73.412;2023-04-08T05:40:04;-1.79;35.54
72202;SHT30;60105;54.956;73.412;2023-04-08T05:43:06;-1.93;35.42
72202;SHT30;60105;54.956;73.412;2023-04-08T05:46:38;-1.86;35.45
72202;SHT30;60105;54.956;73.412;2023-04-08T05:49:39;-1.86;34.78
72202;SHT30;60105;54.956;73.412;2023-04-08T05:52:42;-2.05;35.05
72202;SHT30;60105;54.956;73.412;2023-04-08T05:55:44;-2.08;35.72
72202;SHT30;60105;54.956;73.412;2023-04-08T05:58:45;-2.13;35.67
72202;SHT30;60105;54.956;73.412;2023-04-08T06:01:47;-1.83;35.22
72202;SHT30;60105;54.956;73.412;2023-04-08T06:04:48;-1.89;35.16
72202;SHT30;60105;54.956;73.412;2023-04-08T06:07:49;-1.76;36.01
72202;SHT30;60105;54.956;73.412;2023-04-08T06:10:51;-1.70;35.39
72202;SHT30;60105;54.956;73.412;2023-04-08T06:13:52;-1.64;35.59
72202;SHT30;60105;54.956;73.412;2023-04-08T06:16:53;-1.46;36.06
72202;SHT30;60105;54.956;73.412;2023-04-08T06:19:57;-1.41;36.29
72202;SHT30;60105;54.956;73.412;2023-04-08T06:23:02;-1.25;34.85
72202;SHT30;60105;54.956;73.412;2023-04-08T06:26:37;-1.42;34.98
72202;SHT30;60105;54.956;73.412;2023-04-08T06:29:38;-1.52;35.03
72202;SHT30;60105;54.956;73.412;2023-04-08T06:32:39;-1.27;35.40
72202;SHT30;60105;54.956;73.412;2023-04-08T06:35:41;-1.32;35.62
72202;SHT30;60105;54.956;73.412;2023-04-08T06:38:42;-1.19;35.85
72202;SHT30;60105;54.956;73.412;2023-04-08T06:41:44;-1.27;36.84
72202;SHT30;60105;54.956;73.412;2023-04-08T06:45:14;-1.08;37.08
72202;SHT30;60105;54.956;73.412;2023-04-08T06:48:15;-1.21;36.55
72202;SHT30;60105;54.956;73.412;2023-04-08T06:51:37;-1.15;36.55
72202;SHT30;60105;54.956;73.412;2023-04-08T06:54:42;-0.98;37.63
72202;SHT30;60105;54.956;73.412;2023-04-08T06:57:43;-0.87;37.44
72202;SHT30;60105;54.956;73.412;2023-04-08T07:00:44;-0.80;37.57
72202;SHT30;60105;54.956;73.412;2023-04-08T07:03:45;-0.52;37.50
72202;SHT30;60105;54.956;73.412;2023-04-08T07:06:51;-0.67;35.94
72202;SHT30;60105;54.956;73.412;2023-04-08T07:10:02;-0.66;36.48
72202;SHT30;60105;54.956;73.412;2023-04-08T07:13:04;-0.77;37.77
72202;SHT30;60105;54.956;73.412;2023-04-08T07:16:38;-0.69;36.92
72202;SHT30;60105;54.956;73.412;2023-04-08T07:19:39;-0.63;36.45
72202;SHT30;60105;54.956;73.412;2023-04-08T07:22:41;-0.46;36.18
72202;SHT30;60105;54.956;73.412;2023-04-08T07:25:42;-0.39;36.55
72202;SHT30;60105;54.956;73.412;2023-04-08T07:28:43;-0.25;35.47
72202;SHT30;60105;54.956;73.412;2023-04-08T07:31:45;-0.15;35.08
72202;SHT30;60105;54.956;73.412;2023-04-08T07:34:48;-0.28;35.45
72202;SHT30;60105;54.956;73.412;2023-04-08T07:37:49;-0.06;37.35
72202;SHT30;60105;54.956;73.412;2023-04-08T07:40:53;-0.04;34.80
72202;SHT30;60105;54.956;73.412;2023-04-08T07:43:54;-0.15;34.87
72202;SHT30;60105;54.956;73.412;2023-04-08T07:46:56;-0.26;35.05
72202;SHT30;60105;54.956;73.412;2023-04-08T07:49:57;-0.19;36.89
72202;SHT30;60105;54.956;73.412;2023-04-08T07:52:58;0.02;35.71
72202;SHT30;60105;54.956;73.412;2023-04-08T07:56:38;-0.23;35.99
72202;SHT30;60105;54.956;73.412;2023-04-08T07:59:45;-0.26;36.41
72202;SHT30;60105;54.956;73.412;2023-04-08T08:02:56;-0.14;38.16
72202;SHT30;60105;54.956;73.412;2023-04-08T08:06:38;0.01;36.86
72202;SHT30;60105;54.956;73.412;2023-04-08T08:09:49;0.02;37.19
72202;SHT30;60105;54.956;73.412;2023-04-08T08:12:51;-0.06;37.84
72202;SHT30;60105;54.956;73.412;2023-04-08T08:16:38;-0.15;37.67
72202;SHT30;60105;54.956;73.412;2023-04-08T08:19:39;-0.23;36.95
72202;SHT30;60105;54.956;73.412;2023-04-08T08:22:41;0.01;37.77
72202;SHT30;60105;54.956;73.412;2023-04-08T08:25:42;0.13;37.67
72202;SHT30;60105;54.956;73.412;2023-04-08T08:28:43;0.12;38.25
72202;SHT30;60105;54.956;73.412;2023-04-08T08:31:45;0.33;39.10
72202;SHT30;60105;54.956;73.412;2023-04-08T08:34:58;0.42;38.79
72202;SHT30;60105;54.956;73.412;2023-04-08T08:37:59;0.53;38.41
72202;SHT30;60105;54.956;73.412;2023-04-08T08:41:06;0.80;39.16
72202;SHT30;60105;54.956;73.412;2023-04-08T08:44:08;0.96;39.01
72202;SHT30;60105;54.956;73.412;2023-04-08T08:49:37;0.87;38.75
72202;SHT30;60105;54.956;73.412;2023-04-08T08:52:38;0.68;39.18
72202;SHT30;60105;54.956;73.412;2023-04-08T08:55:52;0.65;39.36
72202;SHT30;60105;54.956;73.412;2023-04-08T08:58:53;0.56;39.08
72202;SHT30;60105;54.956;73.412;2023-04-08T09:02:24;0.56;39.95
72202;SHT30;60105;54.956;73.412;2023-04-08T09:05:26;0.63;39.16
72202;SHT30;60105;54.956;73.412;2023-04-08T09:08:35;0.67;39.44
72202;SHT30;60105;54.956;73.412;2023-04-08T09:12:02;0.92;38.75
72202;SHT30;60105;54.956;73.412;2023-04-08T09:15:08;1.22;38.99
72202;SHT30;60105;54.956;73.412;2023-04-08T09:18:21;0.88;38.17
72202;SHT30;60105;54.956;73.412;2023-04-08T09:22:06;1.09;38.60
72202;SHT30;60105;54.956;73.412;2023-04-08T09:25:27;1.25;37.33
72202;SHT30;60105;54.956;73.412;2023-04-08T09:28:29;1.09;37.75
72202;SHT30;60105;54.956;73.412;2023-04-08T09:32:03;1.15;38.62
72202;SHT30;60105;54.956;73.412;2023-04-08T09:35:04;1.31;38.74
72202;SHT30;60105;54.956;73.412;2023-04-08T09:38:05;1.47;38.72
72202;SHT30;60105;54.956;73.412;2023-04-08T09:41:07;1.45;37.47
72202;SHT30;60105;54.956;73.412;2023-04-08T09:44:10;1.35;39.23
72202;SHT30;60105;54.956;73.412;2023-04-08T09:47:18;1.35;38.99
72202;SHT30;60105;54.956;73.412;2023-04-08T09:50:25;1.28;39.03
72202;SHT30;60105;54.956;73.412;2023-04-08T09:53:33;1.28;38.67
72202;SHT30;60105;54.956;73.412;2023-04-08T09:56:43;1.21;38.96
72202;SHT30;60105;54.956;73.412;2023-04-08T10:00:09;1.18;39.47
72202;SHT30;60105;54.956;73.412;2023-04-08T10:03:36;1.22;40.13
72202;SHT30;60105;54.956;73.412;2023-04-08T10:07:03;1.22;40.52
72202;SHT30;60105;54.956;73.412;2023-04-08T10:10:06;1.08;41.04
72202;SHT30;60105;54.956;73.412;2023-04-08T10:13:08;1.46;40.09
72202;SHT30;60105;54.956;73.412;2023-04-08T10:19:37;1.12;40.56
72202;SHT30;60105;54.956;73.412;2023-04-08T10:22:52;0.96;41.50
72202;SHT30;60105;54.956;73.412;2023-04-08T10:25:55;1.08;41.92
72202;SHT30;60105;54.956;73.412;2023-04-08T10:32:27;1.09;42.28
72202;SHT30;60105;54.956;73.412;2023-04-08T10:35:54;1.11;41.48
72202;SHT30;60105;54.956;73.412;2023-04-08T10:38:55;1.12;41.58
72202;SHT30;60105;54.956;73.412;2023-04-08T10:42:07;1.22;42.54
72202;SHT30;60105;54.956;73.412;2023-04-08T10:45:08;1.39;42.32
72202;SHT30;60105;54.956;73.412;2023-04-08T10:48:18;1.49;41.36
72202;SHT30;60105;54.956;73.412;2023-04-08T10:52:07;1.38;42.20
72202;SHT30;60105;54.956;73.412;2023-04-08T10:55:09;1.35;42.14
72202;SHT30;60105;54.956;73.412;2023-04-08T10:58:15;1.45;42.27
72202;SHT30;60105;54.956;73.412;2023-04-08T11:02:03;1.33;42.16
72202;SHT30;60105;54.956;73.412;2023-04-08T11:05:14;1.21;42.53
72202;SHT30;60105;54.956;73.412;2023-04-08T11:08:16;1.23;42.74
72202;SHT30;60105;54.956;73.412;2023-04-08T11:12:03;1.28;42.21
72202;SHT30;60105;54.956;73.412;2023-04-08T11:15:04;1.31;42.21
72202;SHT30;60105;54.956;73.412;2023-04-08T11:18:07;1.21;41.78
72202;SHT30;60105;54.956;73.412;2023-04-08T11:21:14;1.11;42.44
72202;SHT30;60105;54.956;73.412;2023-04-08T11:24:22;1.26;43.30
72202;SHT30;60105;54.956;73.412;2023-04-08T11:27:24;1.46;42.25
72202;SHT30;60105;54.956;73.412;2023-04-08T11:30:26;1.29;41.93
72202;SHT30;60105;54.956;73.412;2023-04-08T11:33:30;1.15;43.33
72202;SHT30;60105;54.956;73.412;2023-04-08T11:37:03;1.28;42.43
72202;SHT30;60105;54.956;73.412;2023-04-08T11:40:11;1.19;43.16
72202;SHT30;60105;54.956;73.412;2023-04-08T11:43:14;1.06;43.24
72202;SHT30;60105;54.956;73.412;2023-04-08T11:46:15;1.08;43.71
72202;SHT30;60105;54.956;73.412;2023-04-08T11:49:16;1.12;43.57
72202;SHT30;60105;54.956;73.412;2023-04-08T11:52:22;0.99;44.04
72202;SHT30;60105;54.956;73.412;2023-04-08T11:55:45;1.02;44.95
72202;SHT30;60105;54.956;73.412;2023-04-08T11:58:56;0.83;44.85
72202;SHT30;60105;54.956;73.412;2023-04-08T12:02:02;0.81;44.71
72202;SHT30;60105;54.956;73.412;2023-04-08T12:05:04;0.89;44.90
72202;SHT30;60105;54.956;73.412;2023-04-08T12:08:06;1.01;44.47
72202;SHT30;60105;54.956;73.412;2023-04-08T12:11:07;1.19;44.46
72202;SHT30;60105;54.956;73.412;2023-04-08T12:14:18;1.29;44.25
72202;SHT30;60105;54.956;73.412;2023-04-08T12:17:26;1.40;44.31
72202;SHT30;60105;54.956;73.412;2023-04-08T12:20:32;1.52;44.55
72202;SHT30;60105;54.956;73.412;2023-04-08T12:23:34;1.67;43.35
72202;SHT30;60105;54.956;73.412;2023-04-08T12:26:35;1.56;44.10
72202;SHT30;60105;54.956;73.412;2023-04-08T12:29:46;1.53;43.63
72202;SHT30;60105;54.956;73.412;2023-04-08T12:32:49;1.56;44.46
72202;SHT30;60105;54.956;73.412;2023-04-08T12:35:51;1.47;43.65
72202;SHT30;60105;54.956;73.412;2023-04-08T12:38:52;1.33;43.79
72202;SHT30;60105;54.956;73.412;2023-04-08T12:42:02;0.99;45.21
72202;SHT30;60105;54.956;73.412;2023-04-08T12:45:09;0.94;45.39
72202;SHT30;60105;54.956;73.412;2023-04-08T12:48:14;0.87;45.87
72202;SHT30;60105;54.956;73.412;2023-04-08T12:51:15;0.85;45.84
72202;SHT30;60105;54.956;73.412;2023-04-08T12:54:16;0.88;45.88
72202;SHT30;60105;54.956;73.412;2023-04-08T12:57:17;0.94;45.66
72202;SHT30;60105;54.956;73.412;2023-04-08T13:00:19;0.89;45.44
72202;SHT30;60105;54.956;73.412;2023-04-08T13:03:20;0.78;45.63
72202;SHT30;60105;54.956;73.412;2023-04-08T13:07:02;0.71;46.48
72202;SHT30;60105;54.956;73.412;2023-04-08T13:10:05;0.71;46.64
72202;SHT30;60105;54.956;73.412;2023-04-08T13:13:07;0.81;45.88
72202;SHT30;60105;54.956;73.412;2023-04-08T13:17:03;0.65;46.48
72202;SHT30;60105;54.956;73.412;2023-04-08T13:20:05;0.61;47.10
72202;SHT30;60105;54.956;73.412;2023-04-08T13:23:11;0.60;47.03
72202;SHT30;60105;54.956;73.412;2023-04-08T13:26:14;0.58;48.10
72202;SHT30;60105;54.956;73.412;2023-04-08T13:29:26;0.65;48.11
72202;SHT30;60105;54.956;73.412;2023-04-08T13:32:31;0.73;48.58
72202;SHT30;60105;54.956;73.412;2023-04-08T13:35:32;0.80;47.72
72202;SHT30;60105;54.956;73.412;2023-04-08T13:38:34;0.84;47.94
72202;SHT30;60105;54.956;73.412;2023-04-08T13:42:02;0.85;47.92
72202;SHT30;60105;54.956;73.412;2023-04-08T13:45:14;0.83;48.36
72202;SHT30;60105;54.956;73.412;2023-04-08T13:48:20;0.85;48.18
72202;SHT30;60105;54.956;73.412;2023-04-08T13:52:03;0.94;48.93
72202;SHT30;60105;54.956;73.412;2023-04-08T13:55:04;1.04;48.69
72202;SHT30;60105;54.956;73.412;2023-04-08T13:58:06;0.98;48.32
72202;SHT30;60105;54.956;73.412;2023-04-08T14:01:07;0.91;48.81
72202;SHT30;60105;54.956;73.412;2023-04-08T14:04:08;1.06;48.11
72202;SHT30;60105;54.956;73.412;2023-04-08T14:07:11;1.06;48.34
72202;SHT30;60105;54.956;73.412;2023-04-08T14:10:12;1.08;48.72
72202;SHT30;60105;54.956;73.412;2023-04-08T14:13:15;1.02;48.93
72202;SHT30;60105;54.956;73.412;2023-04-08T14:16:17;0.94;49.73
72202;SHT30;60105;54.956;73.412;2023-04-08T14:19:18;0.91;49.57
72202;SHT30;60105;54.956;73.412;2023-04-08T14:22:19;0.87;49.75
72202;SHT30;60105;54.956;73.412;2023-04-08T14:25:21;0.85;49.98
72202;SHT30;60105;54.956;73.412;2023-04-08T14:28:22;0.92;49.73
72202;SHT30;60105;54.956;73.412;2023-04-08T14:32:02;0.80;50.16
72202;SHT30;60105;54.956;73.412;2023-04-08T14:35:04;0.81;50.40
72202;SHT30;60105;54.956;73.412;2023-04-08T14:38:05;0.85;50.27
72202;SHT30;60105;54.956;73.412;2023-04-08T14:41:07;0.87;50.37
72202;SHT30;60105;54.956;73.412;2023-04-08T14:44:18;0.80;50.78
72202;SHT30;60105;54.956;73.412;2023-04-08T14:47:19;0.83;50.69
72202;SHT30;60105;54.956;73.412;2023-04-08T14:50:21;0.83;50.47
72202;SHT30;60105;54.956;73.412;2023-04-08T14:53:22;0.78;50.58
72202;SHT30;60105;54.956;73.412;2023-04-08T14:56:34;0.81;50.46
72202;SHT30;60105;54.956;73.412;2023-04-08T14:59:36;0.80;50.95
72202;SHT30;60105;54.956;73.412;2023-04-08T15:02:37;0.81;50.71
72202;SHT30;60105;54.956;73.412;2023-04-08T15:05:38;0.73;50.97
72202;SHT30;60105;54.956;73.412;2023-04-08T15:08:40;0.64;51.53
72202;SHT30;60105;54.956;73.412;2023-04-08T15:12:03;0.73;51.34
72202;SHT30;60105;54.956;73.412;2023-04-08T15:15:05;0.70;51.47
72202;SHT30;60105;54.956;73.412;2023-04-08T15:18:07;0.65;51.66
72202;SHT30;60105;54.956;73.412;2023-04-08T15:21:08;0.63;51.74
72202;SHT30;60105;54.956;73.412;2023-04-08T15:24:09;0.68;51.72
72202;SHT30;60105;54.956;73.412;2023-04-08T15:27:16;0.67;51.63
72202;SHT30;60105;54.956;73.412;2023-04-08T15:30:17;0.68;51.89
72202;SHT30;60105;54.956;73.412;2023-04-08T15:33:24;0.68;52.20
72202;SHT30;60105;54.956;73.412;2023-04-08T15:37:02;0.65;52.40
72202;SHT30;60105;54.956;73.412;2023-04-08T15:40:04;0.58;52.75
72202;SHT30;60105;54.956;73.412;2023-04-08T15:43:05;0.63;52.47
72202;SHT30;60105;54.956;73.412;2023-04-08T15:46:10;0.71;52.49
72202;SHT30;60105;54.956;73.412;2023-04-08T15:49:11;0.65;52.88
72202;SHT30;60105;54.956;73.412;2023-04-08T15:52:12;0.73;52.67
72202;SHT30;60105;54.956;73.412;2023-04-08T15:55:18;0.80;52.46
72202;SHT30;60105;54.956;73.412;2023-04-08T15:58:24;0.80;52.78
72202;SHT30;60105;54.956;73.412;2023-04-08T16:02:02;0.84;52.65
72202;SHT30;60105;54.956;73.412;2023-04-08T16:05:04;0.87;52.43
72202;SHT30;60105;54.956;73.412;2023-04-08T16:08:06;0.81;52.96
72202;SHT30;60105;54.956;73.412;2023-04-08T16:11:07;0.80;52.87
72202;SHT30;60105;54.956;73.412;2023-04-08T16:14:09;0.77;53.14
72202;SHT30;60105;54.956;73.412;2023-04-08T16:17:21;0.80;52.94
72202;SHT30;60105;54.956;73.412;2023-04-08T16:20:22;0.80;53.08
72202;SHT30;60105;54.956;73.412;2023-04-08T16:23:24;0.74;53.12
72202;SHT30;60105;54.956;73.412;2023-04-08T16:26:31;0.74;53.13
72202;SHT30;60105;54.956;73.412;2023-04-08T16:29:32;0.77;53.20
72202;SHT30;60105;54.956;73.412;2023-04-08T16:32:38;0.71;53.38
72202;SHT30;60105;54.956;73.412;2023-04-08T16:35:41;0.74;53.35
72202;SHT30;60105;54.956;73.412;2023-04-08T16:38:42;0.84;53.27
72202;SHT30;60105;54.956;73.412;2023-04-08T16:42:02;0.81;53.20
72202;SHT30;60105;54.956;73.412;2023-04-08T16:45:04;0.87;53.14
72202;SHT30;60105;54.956;73.412;2023-04-08T16:48:05;0.95;52.73
72202;SHT30;60105;54.956;73.412;2023-04-08T16:51:07;0.98;52.47
72202;SHT30;60105;54.956;73.412;2023-04-08T16:54:08;0.95;52.93
72202;SHT30;60105;54.956;73.412;2023-04-08T16:57:19;0.91;53.09
72202;SHT30;60105;54.956;73.412;2023-04-08T17:00:21;0.95;52.68
72202;SHT30;60105;54.956;73.412;2023-04-08T17:03:28;0.95;52.57
72202;SHT30;60105;54.956;73.412;2023-04-08T17:07:02;0.77;53.17
72202;SHT30;60105;54.956;73.412;2023-04-08T17:10:13;0.75;53.28
72202;SHT30;60105;54.956;73.412;2023-04-08T17:13:26;0.70;53.54
72202;SHT30;60105;54.956;73.412;2023-04-08T17:17:02;0.70;53.47
72202;SHT30;60105;54.956;73.412;2023-04-08T17:20:04;0.71;53.74
72202;SHT30;60105;54.956;73.412;2023-04-08T17:23:05;0.61;53.77
72202;SHT30;60105;54.956;73.412;2023-04-08T17:26:12;0.64;53.47
72202;SHT30;60105;54.956;73.412;2023-04-08T17:29:13;0.60;53.70
72202;SHT30;60105;54.956;73.412;2023-04-08T17:32:14;0.60;53.59
72202;SHT30;60105;54.956;73.412;2023-04-08T17:35:16;0.54;53.71
72202;SHT30;60105;54.956;73.412;2023-04-08T17:38:17;0.53;53.70
72202;SHT30;60105;54.956;73.412;2023-04-08T17:42:02;0.54;53.69
72202;SHT30;60105;54.956;73.412;2023-04-08T17:45:09;0.52;53.70
72202;SHT30;60105;54.956;73.412;2023-04-08T17:48:10;0.54;53.69
72202;SHT30;60105;54.956;73.412;2023-04-08T17:51:11;0.47;53.99
72202;SHT30;60105;54.956;73.412;2023-04-08T17:54:23;0.50;53.84
72202;SHT30;60105;54.956;73.412;2023-04-08T17:57:24;0.53;53.69
72202;SHT30;60105;54.956;73.412;2023-04-08T18:00:26;0.44;53.78
72202;SHT30;60105;54.956;73.412;2023-04-08T18:03:28;0.46;53.68
72202;SHT30;60105;54.956;73.412;2023-04-08T18:07:02;0.40;53.87
72202;SHT30;60105;54.956;73.412;2023-04-08T18:10:05;0.40;54.10
72202;SHT30;60105;54.956;73.412;2023-04-08T18:13:07;0.39;54.02
72202;SHT30;60105;54.956;73.412;2023-04-08T18:16:15;0.44;53.66
72202;SHT30;60105;54.956;73.412;2023-04-08T18:19:17;0.44;53.60
72202;SHT30;60105;54.956;73.412;2023-04-08T18:22:18;0.42;53.61
72202;SHT30;60105;54.956;73.412;2023-04-08T18:25:30;0.37;53.73
72202;SHT30;60105;54.956;73.412;2023-04-08T18:28:37;0.39;53.49
72202;SHT30;60105;54.956;73.412;2023-04-08T18:32:02;0.37;53.56
72202;SHT30;60105;54.956;73.412;2023-04-08T18:35:03;0.37;53.41
72202;SHT30;60105;54.956;73.412;2023-04-08T18:38:05;0.40;53.44
72202;SHT30;60105;54.956;73.412;2023-04-08T18:41:07;0.40;53.45
72202;SHT30;60105;54.956;73.412;2023-04-08T18:44:08;0.46;53.18
72202;SHT30;60105;54.956;73.412;2023-04-08T18:47:09;0.43;53.27
72202;SHT30;60105;54.956;73.412;2023-04-08T18:50:11;0.43;53.25
72202;SHT30;60105;54.956;73.412;2023-04-08T18:53:15;0.39;53.17
72202;SHT30;60105;54.956;73.412;2023-04-08T18:56:18;0.40;53.43
72202;SHT30;60105;54.956;73.412;2023-04-08T18:59:19;0.40;53.25
72202;SHT30;60105;54.956;73.412;2023-04-08T19:02:21;0.39;53.50
72202;SHT30;60105;54.956;73.412;2023-04-08T19:05:32;0.39;53.62
72202;SHT30;60105;54.956;73.412;2023-04-08T19:08:40;0.44;53.29
72202;SHT30;60105;54.956;73.412;2023-04-08T19:12:02;0.43;53.36
72202;SHT30;60105;54.956;73.412;2023-04-08T19:15:14;0.36;53.85
72202;SHT30;60105;54.956;73.412;2023-04-08T19:18:15;0.42;53.51
72202;SHT30;60105;54.956;73.412;2023-04-08T19:21:17;0.43;53.45
72202;SHT30;60105;54.956;73.412;2023-04-08T19:24:18;0.37;53.70
72202;SHT30;60105;54.956;73.412;2023-04-08T19:27:20;0.36;53.73
72202;SHT30;60105;54.956;73.412;2023-04-08T19:30:22;0.37;53.66
72202;SHT30;60105;54.956;73.412;2023-04-08T19:33:23;0.32;54.03
72202;SHT30;60105;54.956;73.412;2023-04-08T19:37:02;0.29;54.02
72202;SHT30;60105;54.956;73.412;2023-04-08T19:40:07;0.32;53.91
72202;SHT30;60105;54.956;73.412;2023-04-08T19:43:09;0.33;53.74
72202;SHT30;60105;54.956;73.412;2023-04-08T19:46:16;0.22;54.15
72202;SHT30;60105;54.956;73.412;2023-04-08T19:49:18;0.26;54.01
72202;SHT30;60105;54.956;73.412;2023-04-08T19:52:21;0.27;53.99
72202;SHT30;60105;54.956;73.412;2023-04-08T19:55:22;0.23;54.20